createdAt,value
2022-12-20T00:07:30.114Z,29.00
2022-12-20T00:22:32.389Z,31.10
2022-12-20T00:37:35.280Z,25.90
2022-12-20T00:52:36.651Z,26.00
2022-12-20T01:07:37.847Z,32.50
2022-12-20T01:22:42.468Z,24.90
2022-12-20T01:37:44.605Z,24.20
2022-12-20T01:52:44.744Z,21.80
2022-12-20T02:07:45.592Z,25.10
2022-12-20T02:22:47.870Z,20.10
2022-12-20T02:37:50.062Z,27.60
2022-12-20T02:52:52.889Z,22.20
2022-12-20T03:07:54.909Z,27.50
2022-12-20T03:22:55.965Z,21.40
2022-12-20T03:37:56.848Z,22.70
2022-12-20T03:52:58.797Z,21.90
2022-12-20T04:08:00.651Z,29.60
2022-12-20T04:23:01.486Z,20.90
2022-12-20T04:38:03.262Z,24.50
2022-12-20T04:53:04.893Z,22.70
2022-12-20T05:08:07.226Z,18.90
2022-12-20T05:23:09.247Z,27.00
2022-12-20T05:38:10.076Z,26.90
2022-12-20T05:53:13.216Z,28.50
2022-12-20T06:08:13.845Z,22.50
2022-12-20T06:23:14.391Z,25.10
2022-12-20T06:38:16.273Z,23.20
2022-12-20T06:53:17.369Z,27.70
2022-12-20T07:08:17.496Z,27.30
2022-12-20T07:23:18.126Z,34.70
2022-12-20T07:38:18.756Z,26.60
2022-12-20T07:53:19.366Z,34.20
2022-12-20T08:08:20.897Z,31.70
2022-12-20T08:23:21.018Z,34.80
2022-12-20T08:38:21.521Z,35.60
2022-12-20T08:53:22.114Z,33.10
2022-12-20T09:08:22.458Z,38.10
2022-12-20T09:23:23.008Z,37.20
2022-12-20T09:38:24.872Z,45.30
2022-12-20T09:53:25.912Z,35.10
2022-12-20T10:08:26.375Z,38.50
2022-12-20T10:23:33.124Z,37.90
2022-12-20T10:38:32.489Z,35.70
2022-12-20T10:53:33.170Z,34.70
2022-12-20T11:08:39.321Z,35.40
2022-12-20T11:23:38.880Z,32.80
2022-12-20T11:38:39.165Z,29.00
2022-12-20T11:53:40.740Z,31.50
2022-12-20T12:08:41.319Z,19.70
2022-12-20T12:23:41.931Z,21.20
2022-12-20T12:38:42.745Z,23.80
2022-12-20T12:53:43.364Z,17.90
2022-12-20T13:08:43.946Z,15.90
2022-12-20T13:23:44.620Z,17.70
2022-12-20T13:38:45.138Z,15.70
2022-12-20T13:53:45.851Z,16.60
2022-12-20T14:08:46.444Z,17.50
2022-12-20T14:23:49.003Z,12.50
2022-12-20T14:38:50.369Z,17.80
2022-12-20T14:53:50.580Z,14.90
2022-12-20T15:08:52.422Z,13.60
2022-12-20T15:23:53.063Z,17.40
2022-12-20T15:39:11.809Z,20.90
2022-12-20T15:53:59.555Z,24.90
2022-12-20T16:09:00.222Z,17.00
2022-12-20T16:24:00.795Z,29.40
2022-12-20T16:39:01.385Z,20.50
2022-12-20T16:54:19.810Z,21.20
2022-12-20T17:09:29.947Z,25.80
2022-12-20T17:24:30.535Z,25.60
2022-12-20T17:39:31.142Z,28.40
2022-12-20T17:54:39.103Z,25.20
2022-12-20T18:09:37.408Z,24.90
2022-12-20T18:24:38.151Z,21.30
2022-12-20T18:39:38.900Z,21.30
2022-12-20T18:54:39.925Z,21.70
2022-12-20T19:09:40.224Z,26.00
2022-12-20T19:24:40.725Z,21.90
2022-12-20T19:39:41.057Z,26.60
2022-12-20T19:54:41.291Z,23.80
2022-12-20T20:09:43.023Z,23.90
2022-12-20T20:24:45.123Z,23.30
2022-12-20T20:39:47.016Z,24.00
2022-12-20T20:54:47.660Z,32.50
2022-12-20T21:09:48.311Z,31.30
2022-12-20T21:24:50.205Z,35.80
2022-12-20T21:39:53.070Z,27.60
2022-12-20T21:54:54.483Z,32.80
2022-12-20T22:09:56.916Z,26.50
2022-12-20T22:24:59.921Z,29.60
2022-12-20T22:40:02.821Z,27.80
2022-12-20T22:55:05.488Z,28.50
2022-12-20T23:10:07.042Z,28.30
2022-12-20T23:25:07.350Z,26.30
2022-12-20T23:40:07.621Z,28.70
2022-12-20T23:55:11.152Z,29.00
